createdAt,value
2023-03-29T00:00:35.781Z,2.30
2023-03-29T00:03:04.178Z,2.20
2023-03-29T00:05:33.994Z,2.30
2023-03-29T00:08:04.357Z,2.30
2023-03-29T00:10:32.652Z,2.40
2023-03-29T00:13:00.595Z,2.40
2023-03-29T00:15:28.533Z,2.30
2023-03-29T00:17:58.100Z,2.50
2023-03-29T00:20:26.081Z,2.60
2023-03-29T00:22:53.913Z,2.70
2023-03-29T00:25:21.748Z,2.80
2023-03-29T00:27:49.586Z,2.90
2023-03-29T00:30:17.525Z,3.10
2023-03-29T00:32:45.944Z,3.20
2023-03-29T00:35:15.168Z,3.40
2023-03-29T00:37:42.949Z,3.40
2023-03-29T00:40:12.717Z,3.50
2023-03-29T00:42:40.582Z,3.60
2023-03-29T00:45:14.632Z,3.50
2023-03-29T00:47:44.239Z,3.60
2023-03-29T00:50:16.286Z,3.60
2023-03-29T00:52:46.304Z,3.60
2023-03-29T00:55:15.853Z,3.60
2023-03-29T00:57:46.574Z,3.60
2023-03-29T01:00:18.028Z,3.70
2023-03-29T01:02:45.934Z,3.70
2023-03-29T01:05:15.962Z,3.70
2023-03-29T01:07:48.036Z,3.70
2023-03-29T01:10:17.452Z,3.80
2023-03-29T01:12:47.102Z,3.80
2023-03-29T01:15:15.705Z,3.80
2023-03-29T01:17:50.163Z,3.90
2023-03-29T01:20:22.559Z,3.80
2023-03-29T01:23:05.191Z,3.70
2023-03-29T01:25:34.656Z,3.80
2023-03-29T01:28:04.663Z,3.80
2023-03-29T01:30:34.586Z,3.90
2023-03-29T01:33:04.219Z,3.90
2023-03-29T01:35:35.752Z,3.90
2023-03-29T01:38:07.260Z,3.70
2023-03-29T01:40:35.158Z,3.70
2023-03-29T01:43:10.155Z,3.80
2023-03-29T01:45:39.162Z,3.80
2023-03-29T01:48:08.885Z,3.80
2023-03-29T01:50:40.914Z,3.80
2023-03-29T01:53:10.500Z,4.00
2023-03-29T01:55:40.170Z,3.80
2023-03-29T01:58:09.499Z,3.80
2023-03-29T02:00:37.301Z,3.70
2023-03-29T02:03:07.378Z,3.70
2023-03-29T02:05:35.759Z,3.90
2023-03-29T02:08:03.893Z,3.70
2023-03-29T02:10:31.993Z,3.70
2023-03-29T02:12:59.834Z,3.70
2023-03-29T02:15:45.214Z,3.70
2023-03-29T02:18:13.768Z,3.70
2023-03-29T02:20:42.293Z,3.80
2023-03-29T02:23:12.697Z,3.70
2023-03-29T02:25:40.421Z,3.70
2023-03-29T02:28:08.164Z,3.60
2023-03-29T02:30:39.949Z,3.70
2023-03-29T02:33:10.746Z,3.60
2023-03-29T02:35:40.784Z,3.60
2023-03-29T02:38:09.078Z,3.70
2023-03-29T02:40:37.633Z,3.80
2023-03-29T02:43:05.656Z,3.70
2023-03-29T02:45:33.545Z,3.70
2023-03-29T02:48:02.981Z,3.70
2023-03-29T02:50:35.386Z,3.60
2023-03-29T02:53:04.833Z,3.70
2023-03-29T02:55:34.492Z,3.70
2023-03-29T02:58:07.852Z,3.60
2023-03-29T03:00:37.027Z,3.70
2023-03-29T03:03:06.013Z,3.60
2023-03-29T03:05:35.298Z,3.70
2023-03-29T03:08:04.535Z,3.70
2023-03-29T03:10:33.666Z,3.90
2023-03-29T03:13:01.510Z,3.80
2023-03-29T03:15:29.334Z,4.00
2023-03-29T03:17:57.320Z,4.10
2023-03-29T03:20:26.629Z,4.20
2023-03-29T03:22:57.512Z,4.40
2023-03-29T03:25:25.344Z,4.50
2023-03-29T03:27:53.167Z,4.60
2023-03-29T03:30:21.270Z,4.60
2023-03-29T03:32:49.915Z,4.60
2023-03-29T03:35:18.057Z,4.70
2023-03-29T03:37:45.870Z,4.70
2023-03-29T03:40:15.048Z,4.80
2023-03-29T03:42:42.853Z,4.80
2023-03-29T03:45:12.250Z,4.80
2023-03-29T03:47:40.312Z,4.80
2023-03-29T03:50:09.648Z,4.80
2023-03-29T03:52:37.436Z,4.90
2023-03-29T03:55:05.754Z,4.80
2023-03-29T03:57:37.475Z,4.90
2023-03-29T04:00:19.020Z,5.00
2023-03-29T04:02:47.348Z,5.00
2023-03-29T04:05:15.632Z,5.00
2023-03-29T04:07:43.529Z,5.00
2023-03-29T04:10:11.593Z,5.00
2023-03-29T04:12:40.928Z,5.10
2023-03-29T04:15:10.444Z,5.10
2023-03-29T04:17:38.449Z,5.00
2023-03-29T04:20:10.252Z,5.00
2023-03-29T04:22:38.199Z,5.00
2023-03-29T04:25:08.202Z,5.10
2023-03-29T04:27:36.248Z,5.10
2023-03-29T04:30:07.093Z,5.10
2023-03-29T04:32:34.924Z,5.10
2023-03-29T04:35:04.764Z,5.10
2023-03-29T04:37:32.630Z,5.10
2023-03-29T04:40:01.327Z,5.10
2023-03-29T04:42:29.369Z,5.10
2023-03-29T04:44:57.316Z,5.10
2023-03-29T04:47:29.950Z,5.00
2023-03-29T04:49:58.043Z,5.00
2023-03-29T04:52:26.396Z,5.00
2023-03-29T04:54:54.229Z,5.00
2023-03-29T04:57:22.173Z,5.00
2023-03-29T04:59:49.977Z,5.10
2023-03-29T05:02:17.852Z,5.00
2023-03-29T05:04:47.010Z,5.00
2023-03-29T05:07:15.584Z,5.00
2023-03-29T05:09:43.735Z,5.00
2023-03-29T05:12:11.605Z,5.00
2023-03-29T05:14:39.380Z,5.00
2023-03-29T05:17:08.079Z,5.00
2023-03-29T05:19:36.468Z,5.00
2023-03-29T05:22:05.724Z,5.00
2023-03-29T05:24:33.549Z,4.90
2023-03-29T05:27:01.452Z,5.00
2023-03-29T05:29:29.263Z,5.00
2023-03-29T05:31:57.458Z,5.00
2023-03-29T05:34:25.692Z,5.10
2023-03-29T05:36:53.525Z,5.10
2023-03-29T05:39:23.404Z,5.00
2023-03-29T05:41:51.353Z,5.00
2023-03-29T05:44:19.206Z,5.00
2023-03-29T05:46:47.010Z,5.00
2023-03-29T05:49:14.841Z,5.00
2023-03-29T05:51:45.637Z,5.00
2023-03-29T05:54:13.438Z,5.00
2023-03-29T05:56:42.652Z,5.00
2023-03-29T05:59:10.451Z,5.00
2023-03-29T06:01:40.049Z,5.10
2023-03-29T06:04:08.361Z,5.10
2023-03-29T06:06:36.358Z,5.10
2023-03-29T06:09:05.306Z,5.20
2023-03-29T06:11:33.339Z,5.20
2023-03-29T06:14:03.434Z,5.20
2023-03-29T06:16:31.298Z,5.20
2023-03-29T06:18:59.224Z,5.20
2023-03-29T06:21:28.215Z,5.20
2023-03-29T06:23:56.027Z,5.30
2023-03-29T06:26:24.039Z,5.40
2023-03-29T06:28:52.415Z,5.40
2023-03-29T06:31:22.094Z,5.30
2023-03-29T06:33:49.953Z,5.40
2023-03-29T06:36:18.305Z,5.50
2023-03-29T06:38:47.140Z,5.60
2023-03-29T06:41:15.011Z,5.70
2023-03-29T06:43:43.161Z,5.80
2023-03-29T06:46:12.343Z,5.90
2023-03-29T06:48:41.935Z,5.90
2023-03-29T06:51:09.725Z,5.90
2023-03-29T06:53:37.846Z,5.90
2023-03-29T06:56:09.373Z,5.90
2023-03-29T06:58:37.594Z,6.10
2023-03-29T07:01:07.141Z,6.30
2023-03-29T07:03:36.270Z,6.40
2023-03-29T07:06:10.054Z,6.30
2023-03-29T07:08:43.255Z,6.30
2023-03-29T07:11:13.144Z,6.20
2023-03-29T07:13:42.392Z,6.20
2023-03-29T07:16:12.540Z,6.30
2023-03-29T07:18:41.485Z,6.10
2023-03-29T07:21:11.466Z,6.00
2023-03-29T07:23:39.254Z,6.00
2023-03-29T07:26:08.085Z,5.90
2023-03-29T07:28:37.431Z,6.10
2023-03-29T07:31:06.788Z,6.00
2023-03-29T07:33:35.182Z,6.00
2023-03-29T07:36:03.383Z,6.10
2023-03-29T07:38:32.659Z,6.10
2023-03-29T07:41:00.876Z,6.10
2023-03-29T07:43:29.057Z,6.10
2023-03-29T07:45:59.339Z,6.10
2023-03-29T07:48:27.554Z,6.10
2023-03-29T07:50:55.888Z,5.90
2023-03-29T07:53:23.818Z,5.90
2023-03-29T07:55:54.750Z,5.90
2023-03-29T07:58:22.748Z,5.90
2023-03-29T08:00:50.718Z,5.90
2023-03-29T08:03:18.787Z,5.90
2023-03-29T08:05:47.415Z,5.90
2023-03-29T08:08:15.242Z,6.00
2023-03-29T08:10:44.530Z,6.00
2023-03-29T08:13:13.797Z,6.20
2023-03-29T08:15:46.149Z,6.10
2023-03-29T08:18:14.177Z,6.10
2023-03-29T08:20:42.582Z,6.10
2023-03-29T08:23:10.735Z,6.10
2023-03-29T08:25:38.620Z,6.20
2023-03-29T08:28:06.455Z,6.30
2023-03-29T08:30:36.138Z,6.40
2023-03-29T08:33:04.077Z,6.30
2023-03-29T08:35:32.182Z,6.40
2023-03-29T08:38:00.088Z,6.40
2023-03-29T08:40:29.989Z,6.50
2023-03-29T08:43:07.229Z,6.60
2023-03-29T08:45:38.561Z,6.70
2023-03-29T08:48:11.680Z,6.70
2023-03-29T08:50:41.181Z,6.70
2023-03-29T08:53:11.987Z,6.80
2023-03-29T08:55:41.517Z,6.80
2023-03-29T08:58:13.662Z,6.90
2023-03-29T09:00:44.765Z,7.00
2023-03-29T09:03:15.991Z,7.20
2023-03-29T09:05:45.579Z,7.30
2023-03-29T09:08:13.873Z,7.40
2023-03-29T09:10:45.389Z,7.50
2023-03-29T09:13:29.983Z,7.60
2023-03-29T09:16:03.499Z,7.60
2023-03-29T09:18:33.694Z,7.70
2023-03-29T09:21:03.080Z,7.80
2023-03-29T09:23:43.345Z,7.90
2023-03-29T09:26:13.552Z,8.10
2023-03-29T09:28:43.669Z,8.20
2023-03-29T09:31:14.515Z,8.10
2023-03-29T09:33:43.624Z,8.20
2023-03-29T09:36:12.769Z,8.30
2023-03-29T09:38:43.195Z,8.40
2023-03-29T09:41:19.006Z,8.50
2023-03-29T09:43:46.886Z,8.50
2023-03-29T09:46:18.391Z,8.70
2023-03-29T09:48:46.475Z,8.80
2023-03-29T09:51:14.427Z,8.90
2023-03-29T09:53:42.457Z,8.90
2023-03-29T09:56:10.744Z,9.00
2023-03-29T09:58:38.697Z,9.00
2023-03-29T10:01:10.002Z,9.00
2023-03-29T10:03:41.201Z,9.00
2023-03-29T10:06:10.873Z,9.00
2023-03-29T10:08:40.775Z,9.00
2023-03-29T10:11:10.408Z,9.20
2023-03-29T10:13:43.776Z,9.30
2023-03-29T10:16:21.308Z,9.30
2023-03-29T10:18:51.181Z,9.40
2023-03-29T10:21:20.282Z,9.40
2023-03-29T10:23:48.267Z,9.40
2023-03-29T10:26:23.865Z,9.50
2023-03-29T10:28:53.589Z,9.50
2023-03-29T10:31:22.221Z,9.50
2023-03-29T10:33:55.529Z,9.50
2023-03-29T10:36:23.695Z,9.60
2023-03-29T10:38:51.971Z,9.60
2023-03-29T10:41:20.035Z,9.70
2023-03-29T10:43:50.835Z,9.90
2023-03-29T10:46:23.207Z,10.00
2023-03-29T10:48:51.894Z,10.00
2023-03-29T10:51:21.322Z,10.00
2023-03-29T10:53:49.175Z,10.10
2023-03-29T10:56:37.056Z,10.20
2023-03-29T10:59:14.448Z,10.60
2023-03-29T11:01:46.150Z,10.80
2023-03-29T11:04:20.841Z,10.90
2023-03-29T11:06:54.027Z,11.00
2023-03-29T11:09:24.121Z,11.30
2023-03-29T11:12:15.151Z,11.50
2023-03-29T11:14:49.740Z,11.80
2023-03-29T11:17:24.840Z,11.90
2023-03-29T11:20:02.440Z,11.90
2023-03-29T11:22:37.320Z,11.80
2023-03-29T11:25:20.902Z,11.90
2023-03-29T11:27:52.298Z,11.90
2023-03-29T11:30:23.896Z,12.00
2023-03-29T11:32:56.541Z,12.00
2023-03-29T11:35:34.103Z,12.20
2023-03-29T11:38:06.776Z,12.20
2023-03-29T11:40:41.055Z,12.30
2023-03-29T11:43:12.242Z,12.40
2023-03-29T11:45:42.405Z,12.40
2023-03-29T11:48:14.052Z,12.40
2023-03-29T11:50:44.292Z,12.40
2023-03-29T11:53:16.065Z,12.40
2023-03-29T11:55:43.956Z,12.40
2023-03-29T11:58:14.185Z,12.40
2023-03-29T12:00:43.597Z,12.40
2023-03-29T12:03:13.891Z,12.50
2023-03-29T12:05:44.000Z,12.60
2023-03-29T12:08:14.745Z,12.50
2023-03-29T12:10:44.018Z,12.60
2023-03-29T12:13:16.346Z,12.60
2023-03-29T12:15:44.838Z,12.70
2023-03-29T12:18:18.332Z,12.80
2023-03-29T12:20:47.570Z,13.00
2023-03-29T12:23:16.797Z,13.00
2023-03-29T12:25:54.351Z,13.00
2023-03-29T12:28:43.773Z,13.00
2023-03-29T12:31:14.294Z,13.10
2023-03-29T12:33:53.389Z,13.40
2023-03-29T12:36:39.289Z,13.60
2023-03-29T12:39:13.505Z,13.80
2023-03-29T12:41:44.874Z,13.90
2023-03-29T12:44:13.088Z,13.90
2023-03-29T12:46:41.068Z,14.10
2023-03-29T12:49:11.428Z,14.10
2023-03-29T12:51:40.702Z,14.10
2023-03-29T12:54:11.580Z,14.30
2023-03-29T12:56:41.815Z,14.40
2023-03-29T12:59:18.852Z,14.40
2023-03-29T13:01:58.912Z,14.30
2023-03-29T13:04:37.470Z,14.30
2023-03-29T13:07:06.083Z,14.30
2023-03-29T13:09:49.012Z,14.10
2023-03-29T13:12:23.346Z,13.90
2023-03-29T13:14:52.020Z,13.90
2023-03-29T13:17:26.791Z,13.80
2023-03-29T13:20:05.042Z,13.70
2023-03-29T13:22:38.473Z,13.60
2023-03-29T13:25:12.096Z,13.50
2023-03-29T13:27:45.440Z,13.40
2023-03-29T13:30:23.974Z,13.40
2023-03-29T13:32:56.573Z,13.20
2023-03-29T13:35:32.040Z,13.10
2023-03-29T13:38:05.398Z,13.10
2023-03-29T13:40:44.100Z,13.00
2023-03-29T13:43:20.272Z,13.00
2023-03-29T13:46:03.910Z,12.90
2023-03-29T13:48:33.612Z,12.80
2023-03-29T13:51:05.047Z,12.80
2023-03-29T13:53:36.220Z,12.70
2023-03-29T13:56:06.576Z,12.60
2023-03-29T13:58:37.599Z,12.50
2023-03-29T14:01:11.066Z,12.50
2023-03-29T14:03:42.257Z,12.40
2023-03-29T14:06:11.182Z,12.40
2023-03-29T14:08:40.948Z,12.30
2023-03-29T14:11:18.223Z,12.30
2023-03-29T14:13:46.525Z,12.30
2023-03-29T14:16:14.603Z,12.30
2023-03-29T14:18:44.632Z,12.40
2023-03-29T14:21:12.712Z,12.50
2023-03-29T14:23:42.074Z,12.50
2023-03-29T14:26:15.231Z,12.50
2023-03-29T14:28:45.999Z,12.60
2023-03-29T14:31:19.403Z,12.60
2023-03-29T14:33:47.369Z,12.60
2023-03-29T14:36:16.994Z,12.60
2023-03-29T14:38:45.602Z,12.60
2023-03-29T14:41:14.918Z,12.60
2023-03-29T14:43:42.966Z,12.50
2023-03-29T14:46:10.958Z,12.40
2023-03-29T14:48:38.895Z,12.30
2023-03-29T14:51:07.174Z,12.30
2023-03-29T14:53:37.023Z,12.30
2023-03-29T14:56:05.420Z,12.30
2023-03-29T14:58:36.256Z,12.30
2023-03-29T15:01:09.135Z,12.20
2023-03-29T15:03:43.978Z,12.10
2023-03-29T15:06:12.189Z,12.00
2023-03-29T15:08:44.066Z,11.90
2023-03-29T15:11:19.880Z,11.80
2023-03-29T15:13:49.184Z,11.70
2023-03-29T15:16:17.882Z,11.70
2023-03-29T15:18:45.840Z,11.60
2023-03-29T15:21:14.785Z,11.50
2023-03-29T15:23:47.440Z,11.50
2023-03-29T15:26:16.017Z,11.50
2023-03-29T15:28:47.788Z,11.50
2023-03-29T15:31:19.361Z,11.50
2023-03-29T15:33:47.522Z,11.50
2023-03-29T15:36:16.434Z,11.50
2023-03-29T15:38:45.346Z,11.60
2023-03-29T15:41:14.382Z,11.50
2023-03-29T15:43:42.839Z,11.50
2023-03-29T15:46:12.536Z,11.50
2023-03-29T15:48:42.055Z,11.60
2023-03-29T15:51:10.815Z,11.60
2023-03-29T15:53:38.737Z,11.50
2023-03-29T15:56:08.060Z,11.50
2023-03-29T15:58:35.996Z,11.40
2023-03-29T16:01:11.446Z,11.40
2023-03-29T16:03:41.633Z,11.30
2023-03-29T16:06:11.996Z,11.30
2023-03-29T16:08:41.404Z,11.30
2023-03-29T16:11:09.305Z,11.30
2023-03-29T16:13:37.359Z,11.30
2023-03-29T16:16:05.968Z,11.30
2023-03-29T16:18:34.029Z,11.30
2023-03-29T16:21:03.539Z,11.30
2023-03-29T16:23:31.525Z,11.30
2023-03-29T16:25:59.517Z,11.30
2023-03-29T16:28:28.212Z,11.30
2023-03-29T16:30:56.150Z,11.30
2023-03-29T16:33:23.991Z,11.20
2023-03-29T16:35:51.839Z,11.20
2023-03-29T16:41:58.311Z,11.00
2023-03-29T16:44:27.888Z,11.00
2023-03-29T16:46:57.859Z,11.10
2023-03-29T16:49:28.481Z,11.00
2023-03-29T16:51:59.845Z,11.00
2023-03-29T16:54:29.740Z,11.00
2023-03-29T16:57:02.411Z,11.10
2023-03-29T16:59:30.651Z,11.00
2023-03-29T17:01:58.712Z,11.00
2023-03-29T17:04:32.583Z,11.00
2023-03-29T17:07:03.736Z,11.10
2023-03-29T17:09:32.175Z,11.00
2023-03-29T17:12:01.583Z,10.90
2023-03-29T17:14:29.697Z,11.00
2023-03-29T17:17:21.009Z,10.90
2023-03-29T17:19:51.257Z,10.90
2023-03-29T17:22:28.291Z,11.00
2023-03-29T17:24:56.325Z,10.90
2023-03-29T17:27:25.794Z,10.80
2023-03-29T17:29:53.878Z,10.70
2023-03-29T17:32:21.935Z,10.70
2023-03-29T17:34:50.077Z,10.60
2023-03-29T17:37:27.777Z,10.60
2023-03-29T17:39:55.771Z,10.60
2023-03-29T17:42:25.027Z,10.70
2023-03-29T17:44:55.408Z,10.60
2023-03-29T17:47:23.411Z,10.60
2023-03-29T17:49:51.900Z,10.60
2023-03-29T17:52:19.722Z,10.50
2023-03-29T17:54:47.577Z,10.50
2023-03-29T17:57:16.277Z,10.40
2023-03-29T17:59:45.473Z,10.40
2023-03-29T18:02:14.686Z,10.30
2023-03-29T18:04:42.644Z,10.30
2023-03-29T18:07:10.469Z,10.30
2023-03-29T18:09:38.302Z,10.30
2023-03-29T18:12:06.634Z,10.30
2023-03-29T18:14:34.677Z,10.30
2023-03-29T18:17:04.139Z,10.20
2023-03-29T18:19:32.343Z,10.30
2023-03-29T18:22:02.865Z,10.20
2023-03-29T18:24:31.022Z,10.10
2023-03-29T18:26:58.929Z,10.10
2023-03-29T18:29:26.924Z,10.10
2023-03-29T18:31:54.907Z,10.10
2023-03-29T18:34:24.138Z,10.10
2023-03-29T18:36:53.636Z,10.00
2023-03-29T18:39:21.474Z,10.00
2023-03-29T18:41:49.322Z,10.10
2023-03-29T18:44:17.178Z,10.10
2023-03-29T18:46:45.462Z,10.10
2023-03-29T18:49:13.612Z,10.10
2023-03-29T18:51:43.918Z,10.10
2023-03-29T18:54:11.740Z,10.10
2023-03-29T18:56:39.564Z,10.10
2023-03-29T18:59:07.394Z,10.20
2023-03-29T19:01:35.335Z,10.20
2023-03-29T19:04:03.188Z,10.20
2023-03-29T19:06:31.699Z,10.20
2023-03-29T19:09:02.130Z,10.20
2023-03-29T19:11:30.584Z,10.20
2023-03-29T19:13:58.599Z,10.20
2023-03-29T19:16:27.450Z,10.30
2023-03-29T19:18:55.453Z,10.30
2023-03-29T19:21:23.367Z,10.20
2023-03-29T19:23:52.977Z,10.30
2023-03-29T19:26:23.357Z,10.20
2023-03-29T19:28:51.213Z,10.20
2023-03-29T19:31:19.138Z,10.20
2023-03-29T19:33:50.430Z,10.20
2023-03-29T19:36:18.488Z,10.20
2023-03-29T19:38:46.380Z,10.20
2023-03-29T19:41:14.178Z,10.20
2023-03-29T19:43:43.388Z,10.20
2023-03-29T19:46:12.425Z,10.10
2023-03-29T19:48:40.495Z,10.20
2023-03-29T19:51:08.830Z,10.20
2023-03-29T19:53:38.646Z,10.10
2023-03-29T19:56:07.634Z,10.10
2023-03-29T19:58:35.682Z,10.10
2023-03-29T20:01:05.100Z,10.10
2023-03-29T20:03:34.215Z,10.10
2023-03-29T20:06:05.118Z,10.20
2023-03-29T20:08:33.047Z,10.30
2023-03-29T20:11:01.270Z,10.30
2023-03-29T20:13:38.324Z,10.40
2023-03-29T20:16:09.076Z,10.40
2023-03-29T20:18:38.270Z,10.50
2023-03-29T20:21:06.414Z,10.50
2023-03-29T20:23:34.654Z,10.50
2023-03-29T20:26:03.142Z,10.40
2023-03-29T20:28:31.549Z,10.30
2023-03-29T20:31:03.774Z,10.40
2023-03-29T20:33:33.175Z,10.40
2023-03-29T20:36:01.339Z,10.30
2023-03-29T20:38:29.288Z,10.30
2023-03-29T20:40:57.209Z,10.30
2023-03-29T20:43:25.049Z,10.20
2023-03-29T20:45:54.203Z,10.10
2023-03-29T20:48:24.264Z,10.10
2023-03-29T20:50:54.173Z,10.00
2023-03-29T20:53:22.031Z,9.90
2023-03-29T20:55:49.862Z,10.00
2023-03-29T20:58:17.661Z,10.00
2023-03-29T21:00:46.801Z,10.00
2023-03-29T21:03:14.757Z,10.10
2023-03-29T21:05:43.573Z,10.00
2023-03-29T21:08:13.007Z,10.00
2023-03-29T21:10:42.397Z,9.90
2023-03-29T21:13:10.225Z,10.00
2023-03-29T21:15:38.135Z,10.00
2023-03-29T21:18:06.758Z,10.00
2023-03-29T21:20:34.665Z,10.00
2023-03-29T21:23:02.508Z,10.10
2023-03-29T21:25:31.712Z,10.00
2023-03-29T21:27:59.550Z,10.00
2023-03-29T21:30:29.436Z,10.20
2023-03-29T21:32:58.534Z,10.20
2023-03-29T21:35:26.360Z,10.20
2023-03-29T21:37:54.235Z,10.40
2023-03-29T21:40:22.079Z,10.40
2023-03-29T21:42:51.253Z,10.40
2023-03-29T21:45:19.134Z,10.50
2023-03-29T21:47:46.956Z,10.50
2023-03-29T21:50:16.081Z,10.60
2023-03-29T21:52:43.903Z,10.70
2023-03-29T21:55:12.275Z,10.60
2023-03-29T21:57:40.225Z,10.70
2023-03-29T22:00:11.440Z,10.70
2023-03-29T22:02:39.480Z,10.80
2023-03-29T22:05:07.719Z,10.80
2023-03-29T22:07:38.663Z,10.80
2023-03-29T22:10:07.414Z,10.80
2023-03-29T22:12:37.148Z,10.70
2023-03-29T22:15:06.261Z,10.70
2023-03-29T22:17:36.988Z,10.70
2023-03-29T22:20:13.806Z,10.70
2023-03-29T22:22:44.652Z,10.70
2023-03-29T22:25:12.560Z,10.70
2023-03-29T22:27:40.375Z,10.90
2023-03-29T22:30:09.631Z,11.00
2023-03-29T22:32:38.864Z,10.90
2023-03-29T22:35:07.580Z,11.10
2023-03-29T22:37:35.601Z,11.00
2023-03-29T22:40:04.318Z,11.20
2023-03-29T22:42:32.181Z,11.20
2023-03-29T22:44:59.966Z,11.10
2023-03-29T22:47:27.828Z,11.10
2023-03-29T22:49:57.006Z,11.20
2023-03-29T22:52:24.843Z,11.30
2023-03-29T22:54:52.639Z,11.20
2023-03-29T22:57:20.611Z,11.20
2023-03-29T22:59:48.494Z,11.10
2023-03-29T23:02:16.305Z,11.10
2023-03-29T23:04:45.391Z,11.20
2023-03-29T23:07:14.694Z,11.20
2023-03-29T23:09:42.497Z,11.20
2023-03-29T23:12:10.492Z,11.30
2023-03-29T23:14:42.496Z,11.40
2023-03-29T23:17:10.804Z,11.40
2023-03-29T23:19:38.839Z,11.50
2023-03-29T23:22:06.685Z,11.50
2023-03-29T23:24:35.822Z,11.40
2023-03-29T23:27:04.922Z,11.40
2023-03-29T23:29:34.497Z,11.50
2023-03-29T23:32:02.378Z,11.40
2023-03-29T23:34:30.153Z,11.50
2023-03-29T23:36:57.945Z,11.50
2023-03-29T23:39:26.073Z,11.50
2023-03-29T23:41:55.244Z,11.50
2023-03-29T23:44:23.211Z,11.50
2023-03-29T23:46:51.036Z,11.50
2023-03-29T23:49:22.745Z,11.60
2023-03-29T23:51:50.995Z,11.60
2023-03-29T23:54:18.877Z,11.60
2023-03-29T23:56:46.694Z,11.70
2023-03-29T23:59:16.439Z,11.70
